Time;durP1;ratioP1;P1;durP2;ratioP2;P2;SDS_P1;SDS_P2;PMS_P1;PMS_P2;Temp;Humidity;BMP_temperature;BMP_pressure;BME280_temperature;BME280_humidity;BME280_pressure;Samples;Min_cycle;Max_cycle;Signal;HPM_P1;HPM_P2
2023/08/03 00:00:59;;;;;;;10.07;3.03;;;18.40;30.60;;;;;;5005537;28;20465;-64
2023/08/03 00:03:26;;;;;;;7.10;1.70;;;18.40;30.50;;;;;;5009836;28;20464;-64
2023/08/03 00:05:52;;;;;;;8.40;2.63;;;18.30;30.20;;;;;;5010915;28;20892;-64
2023/08/03 00:08:20;;;;;;;7.33;2.30;;;18.30;30.20;;;;;;5010537;28;20480;-64
2023/08/03 00:10:47;;;;;;;13.53;2.33;;;18.20;30.20;;;;;;5004041;28;20479;-64
2023/08/03 00:13:14;;;;;;;6.43;2.20;;;18.20;30.30;;;;;;5005339;28;20978;-64
2023/08/03 00:15:41;;;;;;;5.37;1.40;;;18.10;30.60;;;;;;5002825;28;20483;-64
2023/08/03 00:18:07;;;;;;;13.23;2.20;;;18.10;30.60;;;;;;5011342;28;20452;-64
2023/08/03 00:20:34;;;;;;;9.37;2.27;;;18.00;30.60;;;;;;5007813;28;20484;-64
2023/08/03 00:23:00;;;;;;;9.63;2.10;;;18.00;30.80;;;;;;5006360;28;20467;-64
2023/08/03 00:25:30;;;;;;;5.20;1.70;;;18.00;31.00;;;;;;5011678;28;20566;-64
2023/08/03 00:27:57;;;;;;;7.63;1.90;;;17.90;31.20;;;;;;5004415;28;20471;-64
2023/08/03 00:30:24;;;;;;;7.03;2.27;;;17.90;31.40;;;;;;5004732;28;20475;-64
2023/08/03 00:32:50;;;;;;;9.43;2.40;;;17.80;31.60;;;;;;5009805;28;21028;-64
2023/08/03 00:35:17;;;;;;;6.57;2.60;;;17.90;32.20;;;;;;5007792;28;20491;-64
2023/08/03 00:37:44;;;;;;;12.80;2.30;;;17.80;32.30;;;;;;5011576;28;20460;-64
2023/08/03 00:40:11;;;;;;;6.13;2.10;;;17.80;32.50;;;;;;5005648;28;20463;-64
2023/08/03 00:42:39;;;;;;;10.03;2.40;;;17.70;32.70;;;;;;5010895;28;20981;-64
2023/08/03 00:45:10;;;;;;;9.40;1.73;;;17.60;32.90;;;;;;5008348;28;20557;-64
2023/08/03 00:47:36;;;;;;;6.90;2.13;;;17.60;33.00;;;;;;5004401;28;20505;-64
2023/08/03 00:50:04;;;;;;;6.17;1.90;;;17.60;33.20;;;;;;5002974;28;20468;-64
2023/08/03 00:52:33;;;;;;;7.53;2.53;;;17.60;33.40;;;;;;5011273;28;20460;-64
2023/08/03 00:55:00;;;;;;;8.00;1.97;;;17.60;33.40;;;;;;5007694;28;20483;-64
2023/08/03 00:57:27;;;;;;;9.13;2.20;;;17.60;33.50;;;;;;5010808;28;20466;-64
2023/08/03 00:59:55;;;;;;;8.17;2.00;;;17.50;33.50;;;;;;5008518;28;21193;-64
2023/08/03 01:02:22;;;;;;;8.43;2.10;;;17.60;33.50;;;;;;4986191;28;20472;-64
2023/08/03 01:04:50;;;;;;;9.80;2.77;;;17.60;33.30;;;;;;4990385;28;20476;-63
2023/08/03 01:07:17;;;;;;;6.57;2.23;;;17.60;33.00;;;;;;4990898;28;21407;-64
2023/08/03 01:09:44;;;;;;;9.53;2.37;;;17.60;32.60;;;;;;4985831;28;21189;-64
2023/08/03 01:12:10;;;;;;;7.60;2.07;;;17.60;32.20;;;;;;4991897;28;20461;-64
2023/08/03 01:14:37;;;;;;;10.07;2.57;;;17.60;31.80;;;;;;4984487;28;20480;-64
2023/08/03 01:17:06;;;;;;;5.90;1.90;;;17.60;31.50;;;;;;4984568;28;20467;-64
2023/08/03 01:19:33;;;;;;;7.90;2.10;;;17.60;31.30;;;;;;4988029;28;20479;-64
2023/08/03 01:22:01;;;;;;;8.80;2.20;;;17.60;30.90;;;;;;4991163;28;20464;-64
2023/08/03 01:24:29;;;;;;;11.10;3.53;;;17.70;30.70;;;;;;4987329;28;21248;-64
2023/08/03 01:26:59;;;;;;;6.57;1.90;;;17.60;30.60;;;;;;4987615;28;20465;-64
2023/08/03 01:29:26;;;;;;;7.27;2.30;;;17.60;30.50;;;;;;4988211;28;20543;-64
2023/08/03 01:31:56;;;;;;;10.07;2.80;;;17.60;30.20;;;;;;4987345;28;20480;-64
2023/08/03 01:34:23;;;;;;;10.53;2.27;;;17.60;30.20;;;;;;4984700;28;20499;-64
2023/08/03 01:36:50;;;;;;;6.53;2.53;;;17.60;30.40;;;;;;4991625;28;20453;-64
2023/08/03 01:39:17;;;;;;;9.43;2.40;;;17.60;30.30;;;;;;4988091;28;20554;-64
2023/08/03 01:41:45;;;;;;;10.93;2.57;;;17.50;30.30;;;;;;4990633;28;20456;-63
2023/08/03 01:44:25;;;;;;;10.20;2.90;;;17.50;30.30;;;;;;4982129;28;20827;-64
2023/08/03 01:46:52;;;;;;;8.17;2.27;;;17.50;30.40;;;;;;4980970;28;20469;-64
2023/08/03 01:49:19;;;;;;;9.13;2.50;;;17.50;30.20;;;;;;4987160;28;20485;-64
2023/08/03 01:51:45;;;;;;;13.13;2.60;;;17.50;29.90;;;;;;4986186;28;20465;-64
2023/08/03 01:54:13;;;;;;;8.67;2.17;;;17.50;30.10;;;;;;4987379;28;20477;-64
2023/08/03 01:56:40;;;;;;;7.97;2.07;;;17.40;30.10;;;;;;4989879;28;20971;-64
2023/08/03 01:59:08;;;;;;;9.40;2.27;;;17.40;30.30;;;;;;4986293;28;20461;-64
2023/08/03 02:01:35;;;;;;;14.73;2.90;;;17.40;30.40;;;;;;4986853;28;20629;-64
2023/08/03 02:04:01;;;;;;;10.57;2.93;;;17.40;30.40;;;;;;4985097;28;20496;-64
2023/08/03 02:06:28;;;;;;;9.10;2.57;;;17.30;30.60;;;;;;4987133;28;20889;-64
2023/08/03 02:08:55;;;;;;;14.23;3.10;;;17.30;30.70;;;;;;4987269;28;20507;-64
2023/08/03 02:11:22;;;;;;;13.93;2.70;;;17.30;30.80;;;;;;4989905;28;20465;-64
2023/08/03 02:13:48;;;;;;;10.63;3.70;;;17.20;30.90;;;;;;4985390;28;20488;-64
2023/08/03 02:16:16;;;;;;;13.27;2.53;;;17.10;31.10;;;;;;4988900;28;20467;-64
2023/08/03 02:18:42;;;;;;;11.10;2.77;;;17.10;31.20;;;;;;4986788;28;20209;-64
2023/08/03 02:21:09;;;;;;;13.63;2.53;;;17.00;31.10;;;;;;4985579;28;20468;-64
2023/08/03 02:23:36;;;;;;;11.17;2.83;;;17.00;31.00;;;;;;4983558;28;20487;-64
2023/08/03 02:26:03;;;;;;;9.43;2.60;;;17.00;30.90;;;;;;4989648;28;20541;-64
2023/08/03 02:28:30;;;;;;;7.20;2.33;;;17.00;30.70;;;;;;4986644;28;20488;-64
2023/08/03 02:30:57;;;;;;;8.63;2.17;;;17.00;30.80;;;;;;4988836;28;20477;-64
2023/08/03 02:33:25;;;;;;;11.20;2.30;;;16.90;30.80;;;;;;4987936;28;20456;-63
2023/08/03 02:35:51;;;;;;;11.80;2.73;;;16.90;31.00;;;;;;4987039;28;20482;-63
2023/08/03 02:38:18;;;;;;;10.53;2.50;;;16.90;31.00;;;;;;4987310;28;20476;-64
2023/08/03 02:40:45;;;;;;;7.63;2.00;;;16.90;30.90;;;;;;4989101;28;20460;-63
2023/08/03 02:43:11;;;;;;;11.97;3.43;;;16.80;30.70;;;;;;4985226;28;20469;-63
2023/08/03 02:45:38;;;;;;;7.80;2.40;;;16.80;30.60;;;;;;4988828;28;20487;-64
2023/08/03 02:48:05;;;;;;;10.80;2.33;;;16.70;30.70;;;;;;4987421;28;20969;-64
2023/08/03 02:50:33;;;;;;;18.67;3.10;;;16.70;30.60;;;;;;4987627;28;20456;-63
2023/08/03 02:53:00;;;;;;;8.30;2.07;;;16.70;30.40;;;;;;4986665;28;20457;-64
2023/08/03 02:55:26;;;;;;;11.50;2.60;;;16.70;30.30;;;;;;4988890;28;20479;-64
2023/08/03 02:57:53;;;;;;;13.63;2.80;;;16.70;30.20;;;;;;4984663;28;20475;-64
2023/08/03 03:00:20;;;;;;;8.43;2.73;;;16.60;29.90;;;;;;4986882;28;20453;-64
2023/08/03 03:02:47;;;;;;;6.73;2.00;;;16.70;29.70;;;;;;4982042;28;20524;-64
2023/08/03 03:05:14;;;;;;;13.53;2.20;;;16.60;29.40;;;;;;4983353;28;20484;-64
2023/08/03 03:07:42;;;;;;;11.03;3.00;;;16.60;29.00;;;;;;4985806;28;20637;-64
2023/08/03 03:10:09;;;;;;;7.47;2.20;;;16.60;28.40;;;;;;4983693;28;20495;-64
2023/08/03 03:12:37;;;;;;;8.20;2.13;;;16.70;28.20;;;;;;4984674;28;20559;-64
2023/08/03 03:15:04;;;;;;;8.60;2.00;;;16.70;28.20;;;;;;4986220;28;20573;-64
2023/08/03 03:17:30;;;;;;;6.07;1.87;;;16.70;27.80;;;;;;4986952;28;21284;-64
2023/08/03 03:19:57;;;;;;;9.17;2.97;;;16.70;27.40;;;;;;4986069;28;20491;-64
2023/08/03 03:22:24;;;;;;;6.23;1.60;;;16.60;27.30;;;;;;4984903;28;20471;-64
2023/08/03 03:24:52;;;;;;;6.83;2.10;;;16.70;26.90;;;;;;4986014;28;20477;-64
2023/08/03 03:27:18;;;;;;;8.73;1.70;;;16.60;25.80;;;;;;4985696;28;20460;-64
2023/08/03 03:29:45;;;;;;;9.53;1.77;;;16.60;25.70;;;;;;4984198;28;20485;-64
2023/08/03 03:32:12;;;;;;;7.60;1.87;;;16.60;25.90;;;;;;4985040;28;20477;-64
2023/08/03 03:34:39;;;;;;;12.23;1.93;;;16.70;25.40;;;;;;4986154;28;20488;-64
2023/08/03 03:37:06;;;;;;;12.57;2.10;;;16.70;25.20;;;;;;4988104;28;20897;-64
2023/08/03 03:39:32;;;;;;;6.77;1.67;;;16.70;24.90;;;;;;4986087;28;21118;-64
2023/08/03 03:42:00;;;;;;;6.60;1.80;;;16.60;25.00;;;;;;4982844;28;20485;-64
2023/08/03 03:44:27;;;;;;;6.37;1.70;;;16.60;25.20;;;;;;4980537;28;20480;-64
2023/08/03 03:46:54;;;;;;;11.50;3.07;;;16.60;25.00;;;;;;4988343;28;20967;-64
2023/08/03 03:49:21;;;;;;;9.63;3.17;;;16.60;24.80;;;;;;4987913;28;20479;-64
2023/08/03 03:51:47;;;;;;;9.90;2.43;;;16.60;24.80;;;;;;4984605;28;20480;-64
2023/08/03 03:54:14;;;;;;;10.33;1.77;;;16.60;24.70;;;;;;4980008;28;21509;-64
2023/08/03 03:56:41;;;;;;;8.73;1.77;;;16.60;24.40;;;;;;4984777;28;20468;-64
2023/08/03 03:59:09;;;;;;;10.90;1.77;;;16.60;24.40;;;;;;4987346;28;20464;-64
2023/08/03 04:01:35;;;;;;;7.43;1.37;;;16.60;24.30;;;;;;4980939;28;20487;-64
2023/08/03 04:04:02;;;;;;;6.27;1.43;;;16.60;24.10;;;;;;4986463;28;20480;-64
2023/08/03 04:06:29;;;;;;;20.60;2.40;;;16.60;23.80;;;;;;4984844;28;20475;-64
2023/08/03 04:08:55;;;;;;;8.23;1.43;;;16.60;23.80;;;;;;4983800;28;20484;-68
2023/08/03 04:11:22;;;;;;;6.63;1.50;;;16.60;22.90;;;;;;4983858;28;20968;-67
2023/08/03 04:13:49;;;;;;;12.33;2.17;;;16.60;22.80;;;;;;4982653;28;20498;-68
2023/08/03 04:16:17;;;;;;;5.90;1.40;;;16.70;22.70;;;;;;4976636;28;20468;-64
2023/08/03 04:18:44;;;;;;;14.30;2.03;;;16.70;22.20;;;;;;4978315;28;20464;-67
2023/08/03 04:21:11;;;;;;;5.37;1.37;;;16.70;21.70;;;;;;4978849;28;21463;-67
2023/08/03 04:23:38;;;;;;;6.73;1.43;;;16.70;21.30;;;;;;4981287;28;20538;-67
2023/08/03 04:26:04;;;;;;;8.57;2.00;;;16.80;21.20;;;;;;4983654;28;20862;-67
2023/08/03 04:28:31;;;;;;;8.80;1.93;;;16.80;21.20;;;;;;4978313;28;20464;-66
2023/08/03 04:30:58;;;;;;;5.80;1.70;;;16.90;20.90;;;;;;4983383;28;20483;-67
2023/08/03 04:33:26;;;;;;;7.20;1.73;;;16.90;21.00;;;;;;4983148;28;20473;-67
2023/08/03 04:35:53;;;;;;;7.13;1.43;;;16.90;20.80;;;;;;4984898;28;20519;-68
2023/08/03 04:38:19;;;;;;;7.47;1.27;;;17.00;20.50;;;;;;4985202;28;20461;-66
2023/08/03 04:40:46;;;;;;;5.77;1.60;;;17.00;20.70;;;;;;4983989;28;20980;-67
2023/08/03 04:43:13;;;;;;;8.00;1.50;;;17.00;20.60;;;;;;4988020;28;20479;-67
2023/08/03 04:45:39;;;;;;;8.60;1.80;;;17.00;20.60;;;;;;4981299;28;21031;-67
2023/08/03 04:48:06;;;;;;;4.90;1.67;;;17.10;20.80;;;;;;4988655;28;20467;-67
2023/08/03 04:50:34;;;;;;;6.87;1.57;;;17.10;20.50;;;;;;4985954;28;20484;-67
2023/08/03 04:53:01;;;;;;;9.67;2.73;;;17.20;20.00;;;;;;4981012;28;20480;-67
2023/08/03 04:55:27;;;;;;;9.13;1.67;;;17.20;19.90;;;;;;4988476;28;20491;-66
2023/08/03 04:57:54;;;;;;;5.70;1.57;;;17.30;19.70;;;;;;4986356;28;20826;-62
2023/08/03 05:00:21;;;;;;;5.63;1.50;;;17.30;19.80;;;;;;4979323;28;20476;-65
2023/08/03 05:02:47;;;;;;;6.40;1.27;;;17.40;19.90;;;;;;4987801;28;20496;-67
2023/08/03 05:05:14;;;;;;;4.90;1.30;;;17.50;19.60;;;;;;4986218;28;21283;-63
2023/08/03 05:07:42;;;;;;;6.63;1.60;;;17.60;19.20;;;;;;4979424;28;20475;-67
2023/08/03 05:10:10;;;;;;;6.80;1.67;;;17.70;18.90;;;;;;4987795;28;23130;-65
2023/08/03 05:12:38;;;;;;;6.37;1.30;;;18.70;17.50;;;;;;4985235;28;20461;-67
2023/08/03 05:15:05;;;;;;;5.53;1.13;;;20.40;13.90;;;;;;4984411;28;20482;-68
2023/08/03 05:17:32;;;;;;;9.13;1.83;;;22.00;10.20;;;;;;4985151;28;20460;-67
2023/08/03 05:19:59;;;;;;;4.93;1.03;;;23.20;7.20;;;;;;4985040;28;20457;-64
2023/08/03 05:22:25;;;;;;;6.00;1.67;;;24.30;5.10;;;;;;4981671;28;20914;-67
2023/08/03 05:24:54;;;;;;;7.63;1.30;;;25.20;2.80;;;;;;4985305;28;20504;-67
2023/08/03 05:27:20;;;;;;;5.90;1.00;;;26.10;1.10;;;;;;4988308;28;20841;-67
2023/08/03 05:29:47;;;;;;;6.07;1.23;;;26.90;1.00;;;;;;4987694;28;20491;-68
2023/08/03 05:32:14;;;;;;;6.33;1.43;;;27.70;1.00;;;;;;4987276;28;20480;-68
2023/08/03 05:34:40;;;;;;;6.07;1.50;;;28.60;1.00;;;;;;4982898;28;20842;-68
2023/08/03 05:37:07;;;;;;;4.13;1.30;;;29.40;1.00;;;;;;4985099;28;20484;-68
2023/08/03 05:39:34;;;;;;;4.50;1.00;;;30.10;1.00;;;;;;4986745;28;20472;-68
2023/08/03 05:42:02;;;;;;;5.07;1.00;;;31.00;1.00;;;;;;4985946;28;20469;-68
2023/08/03 05:44:29;;;;;;;5.30;1.00;;;31.80;1.00;;;;;;4982723;28;20535;-68
2023/08/03 05:46:56;;;;;;;4.63;0.90;;;32.50;1.00;;;;;;4985701;28;20466;-67
2023/08/03 05:49:26;;;;;;;6.50;1.13;;;32.90;1.00;;;;;;4976221;28;20485;-67
2023/08/03 05:51:53;;;;;;;5.27;1.07;;;33.60;1.00;;;;;;4979947;28;20496;-68
2023/08/03 05:54:20;;;;;;;5.20;0.77;;;34.20;1.00;;;;;;4981226;28;20493;-67
2023/08/03 05:56:47;;;;;;;5.00;1.43;;;34.70;1.00;;;;;;4984588;28;20477;-64
2023/08/03 05:59:22;;;;;;;4.90;1.20;;;35.10;1.00;;;;;;4977530;28;20468;-68
2023/08/03 06:01:50;;;;;;;3.70;0.87;;;35.70;1.00;;;;;;4978844;28;20492;-65
2023/08/03 06:04:17;;;;;;;4.37;1.30;;;36.30;1.00;;;;;;4983230;28;20499;-65
2023/08/03 06:06:45;;;;;;;4.63;1.00;;;36.80;1.00;;;;;;4982008;28;20472;-65
2023/08/03 06:09:12;;;;;;;5.03;1.20;;;37.30;1.00;;;;;;4984723;28;20488;-65
2023/08/03 06:11:40;;;;;;;5.67;1.10;;;37.70;1.00;;;;;;4985789;28;21593;-65
2023/08/03 06:14:11;;;;;;;7.60;2.73;;;38.00;1.00;;;;;;4982648;28;20494;-64
2023/08/03 06:16:39;;;;;;;5.70;1.00;;;38.60;1.00;;;;;;4975632;28;20481;-68
2023/08/03 06:19:07;;;;;;;3.67;1.20;;;39.20;1.00;;;;;;4981151;28;20473;-69
2023/08/03 06:21:34;;;;;;;4.93;1.13;;;39.90;1.00;;;;;;4984492;28;20472;-69
2023/08/03 06:24:01;;;;;;;3.93;1.10;;;40.50;1.00;;;;;;4983450;28;20490;-69
2023/08/03 06:26:32;;;;;;;3.80;0.80;;;41.20;1.00;;;;;;4976934;28;20489;-68
2023/08/03 06:29:00;;;;;;;5.80;1.23;;;41.70;1.00;;;;;;4977203;28;20971;-68
2023/08/03 06:31:31;;;;;;;3.83;1.00;;;41.80;1.00;;;;;;4979637;28;20488;-69
2023/08/03 06:33:59;;;;;;;4.40;1.00;;;41.90;1.00;;;;;;4983914;28;20480;-68
2023/08/03 06:36:27;;;;;;;4.00;0.90;;;42.20;1.00;;;;;;4986865;28;20463;-67
2023/08/03 06:38:55;;;;;;;3.93;0.80;;;42.50;1.00;;;;;;4985076;28;21116;-68
2023/08/03 06:41:23;;;;;;;3.60;0.93;;;42.90;1.00;;;;;;4983708;28;20496;-68
2023/08/03 06:43:50;;;;;;;4.10;1.10;;;43.60;1.00;;;;;;4984799;28;20865;-68
2023/08/03 06:46:17;;;;;;;4.00;0.97;;;44.20;1.00;;;;;;4984015;28;20478;-68
2023/08/03 06:48:43;;;;;;;3.97;0.87;;;44.30;1.00;;;;;;4983469;28;21032;-68
2023/08/03 06:51:12;;;;;;;5.20;1.10;;;44.30;1.00;;;;;;4983094;28;20528;-68
2023/08/03 06:53:39;;;;;;;4.77;1.03;;;44.70;1.00;;;;;;4986875;28;20480;-68
2023/08/03 06:56:06;;;;;;;3.80;0.63;;;45.00;1.00;;;;;;4980892;28;20472;-67
2023/08/03 06:58:32;;;;;;;3.47;1.10;;;45.30;1.00;;;;;;4979372;28;20461;-67
2023/08/03 07:00:59;;;;;;;4.70;1.30;;;45.70;1.00;;;;;;4977153;28;20479;-67
2023/08/03 07:03:26;;;;;;;6.23;0.77;;;46.10;1.00;;;;;;4980256;28;20468;-68
2023/08/03 07:05:53;;;;;;;3.43;1.03;;;46.30;1.00;;;;;;4981769;28;20958;-69
2023/08/03 07:08:21;;;;;;;4.00;1.17;;;46.50;1.00;;;;;;4982833;28;20460;-69
2023/08/03 07:10:48;;;;;;;4.27;0.83;;;46.90;1.00;;;;;;4980907;28;20503;-69
2023/08/03 07:13:15;;;;;;;4.43;1.10;;;47.20;1.00;;;;;;4979698;28;20469;-69
2023/08/03 07:15:41;;;;;;;3.93;0.93;;;47.50;1.00;;;;;;4984143;28;20463;-65
2023/08/03 07:18:09;;;;;;;5.17;0.80;;;47.60;1.00;;;;;;4980239;28;20845;-67
2023/08/03 07:20:36;;;;;;;3.07;0.80;;;47.90;1.00;;;;;;4982446;28;20457;-68
2023/08/03 07:23:05;;;;;;;3.73;0.77;;;48.30;1.00;;;;;;4984265;28;20551;-68
2023/08/03 07:25:34;;;;;;;4.33;0.97;;;48.40;1.00;;;;;;4978788;28;20539;-68
2023/08/03 07:28:01;;;;;;;4.47;1.17;;;48.40;1.00;;;;;;4977322;28;20469;-68
2023/08/03 07:30:28;;;;;;;4.80;0.63;;;48.20;1.00;;;;;;4978478;28;21079;-69
2023/08/03 07:32:57;;;;;;;3.37;0.60;;;48.20;1.00;;;;;;4976175;28;21029;-68
2023/08/03 07:35:24;;;;;;;3.33;0.70;;;48.60;1.00;;;;;;4984162;28;20512;-68
2023/08/03 07:37:50;;;;;;;3.70;0.77;;;48.60;1.00;;;;;;4977393;28;20470;-68
2023/08/03 07:40:17;;;;;;;3.77;1.00;;;48.50;1.00;;;;;;4980004;28;20464;-66
2023/08/03 07:42:45;;;;;;;4.47;0.67;;;48.20;1.00;;;;;;4981773;28;20874;-66
2023/08/03 07:45:12;;;;;;;4.87;0.87;;;47.90;1.00;;;;;;4976611;28;20497;-67
2023/08/03 07:47:38;;;;;;;3.73;0.90;;;47.70;1.00;;;;;;4978213;28;20476;-66
2023/08/03 07:50:07;;;;;;;4.30;0.70;;;47.20;1.00;;;;;;4978520;28;20504;-66
2023/08/03 07:52:33;;;;;;;4.93;0.70;;;46.90;1.00;;;;;;4980227;28;20473;-64
2023/08/03 07:55:00;;;;;;;3.70;0.70;;;46.50;1.00;;;;;;4978890;28;20501;-67
2023/08/03 07:57:27;;;;;;;4.70;0.87;;;46.20;1.00;;;;;;4976274;28;20951;-68
2023/08/03 07:59:55;;;;;;;3.17;0.60;;;46.30;1.00;;;;;;4984822;28;20480;-69
2023/08/03 08:02:23;;;;;;;3.30;0.60;;;46.30;1.00;;;;;;4977320;28;20485;-69
2023/08/03 08:04:50;;;;;;;3.63;0.60;;;46.40;1.00;;;;;;4977228;28;20495;-69
2023/08/03 08:07:18;;;;;;;3.37;0.60;;;46.40;1.00;;;;;;4982938;28;20488;-69
2023/08/03 08:09:44;;;;;;;3.40;0.80;;;46.20;1.00;;;;;;4982367;28;20449;-69
2023/08/03 08:12:11;;;;;;;3.40;0.80;;;46.40;1.00;;;;;;4988792;28;20465;-69
2023/08/03 08:14:38;;;;;;;3.27;0.70;;;46.70;1.00;;;;;;4985177;28;20503;-68
2023/08/03 08:17:06;;;;;;;4.10;0.67;;;46.70;1.00;;;;;;4986060;28;20543;-69
2023/08/03 08:19:33;;;;;;;4.70;0.80;;;47.10;1.00;;;;;;4986368;28;20962;-68
2023/08/03 08:22:00;;;;;;;5.53;1.10;;;47.00;1.00;;;;;;4991176;28;20465;-69
2023/08/03 08:24:27;;;;;;;4.03;0.80;;;47.20;1.00;;;;;;4988958;28;20995;-69
2023/08/03 08:26:53;;;;;;;8.33;1.00;;;47.50;1.00;;;;;;4989509;28;20461;-69
2023/08/03 08:29:20;;;;;;;2.70;0.60;;;47.90;1.00;;;;;;4991241;28;20460;-69
2023/08/03 08:31:47;;;;;;;5.63;0.90;;;48.10;1.00;;;;;;4987183;28;20473;-70
2023/08/03 08:34:15;;;;;;;9.73;0.97;;;48.30;1.00;;;;;;4987977;28;20484;-69
2023/08/03 08:36:42;;;;;;;3.33;0.70;;;48.40;1.00;;;;;;4991042;28;20464;-69
2023/08/03 08:39:08;;;;;;;4.93;1.23;;;48.50;1.00;;;;;;4986417;28;20456;-68
2023/08/03 08:41:39;;;;;;;3.70;0.57;;;48.50;1.00;;;;;;4991804;28;20501;-69
2023/08/03 08:44:06;;;;;;;4.77;0.80;;;48.50;1.00;;;;;;4991557;28;20481;-70
2023/08/03 08:46:33;;;;;;;3.10;0.80;;;48.70;1.00;;;;;;4990830;28;20463;-70
2023/08/03 08:48:59;;;;;;;2.83;0.50;;;48.80;1.00;;;;;;4989209;28;20472;-69
2023/08/03 08:51:28;;;;;;;4.57;0.83;;;48.80;1.00;;;;;;4990996;28;21236;-68
2023/08/03 08:53:55;;;;;;;2.93;0.70;;;49.10;1.00;;;;;;4985790;28;20476;-67
2023/08/03 08:56:22;;;;;;;3.77;0.70;;;49.20;1.00;;;;;;4983801;28;20453;-68
2023/08/03 08:58:48;;;;;;;3.93;0.70;;;49.40;1.00;;;;;;4986470;28;21145;-68
2023/08/03 09:01:15;;;;;;;3.70;0.90;;;49.70;1.00;;;;;;4990338;28;20465;-68
2023/08/03 09:03:51;;;;;;;3.93;0.73;;;49.60;1.00;;;;;;4991575;28;20554;-66
2023/08/03 09:06:19;;;;;;;2.70;0.70;;;49.60;1.00;;;;;;4986525;28;20468;-69
2023/08/03 09:08:52;;;;;;;4.70;0.70;;;49.20;1.00;;;;;;4982824;28;20572;-69
2023/08/03 09:11:19;;;;;;;4.20;1.10;;;46.80;1.00;;;;;;4984722;28;20502;-68
2023/08/03 09:13:48;;;;;;;5.40;0.60;;;44.20;1.00;;;;;;4987324;28;20472;-68
2023/08/03 09:16:26;;;;;;;6.20;0.70;;;44.20;1.00;;;;;;4989444;28;20507;-68
2023/08/03 09:18:53;;;;;;;6.20;0.73;;;45.00;1.00;;;;;;4984803;28;20993;-68
2023/08/03 09:21:21;;;;;;;8.63;0.83;;;45.70;1.00;;;;;;4985924;28;20457;-68
2023/08/03 09:23:48;;;;;;;5.90;0.77;;;46.10;1.00;;;;;;4987036;28;20496;-68
2023/08/03 09:26:22;;;;;;;5.13;0.73;;;46.40;1.00;;;;;;4990298;28;20460;-68
2023/08/03 09:28:48;;;;;;;5.93;1.17;;;46.70;1.00;;;;;;4983571;28;20584;-68
2023/08/03 09:31:22;;;;;;;2.83;0.50;;;46.90;1.00;;;;;;4986223;28;20488;-69
2023/08/03 09:33:55;;;;;;;2.50;0.50;;;47.00;1.00;;;;;;4980744;28;20487;-69
2023/08/03 09:36:22;;;;;;;4.10;0.80;;;47.00;1.00;;;;;;4985901;28;20475;-69
2023/08/03 09:38:49;;;;;;;4.60;1.20;;;47.30;1.00;;;;;;4984325;28;21039;-69
2023/08/03 09:41:33;;;;;;;3.57;0.50;;;47.30;1.00;;;;;;4982633;28;21012;-69
2023/08/03 09:44:00;;;;;;;3.30;0.70;;;47.10;1.00;;;;;;4983163;28;20539;-69
2023/08/03 09:46:29;;;;;;;2.80;0.57;;;47.10;1.00;;;;;;4983219;28;20894;-70
2023/08/03 09:48:56;;;;;;;3.43;0.60;;;46.90;1.00;;;;;;4981607;28;20481;-69
2023/08/03 09:51:28;;;;;;;3.17;0.60;;;47.00;1.00;;;;;;4982337;28;20486;-69
2023/08/03 09:54:00;;;;;;;3.23;0.63;;;46.30;1.00;;;;;;4983319;28;20476;-69
2023/08/03 09:56:31;;;;;;;3.17;0.70;;;46.30;1.00;;;;;;4983943;28;20460;-69
2023/08/03 09:59:03;;;;;;;4.10;0.63;;;43.90;1.00;;;;;;4982761;28;20476;-69
2023/08/03 10:01:33;;;;;;;5.07;0.97;;;43.00;1.00;;;;;;4980688;28;20477;-68
2023/08/03 10:04:05;;;;;;;2.60;0.47;;;42.70;1.00;;;;;;4982425;28;20563;-68
2023/08/03 10:06:35;;;;;;;3.77;0.63;;;41.20;1.00;;;;;;4981348;28;20467;-68
2023/08/03 10:09:05;;;;;;;5.23;0.70;;;39.00;1.00;;;;;;4982167;28;20484;-68
2023/08/03 10:11:39;;;;;;;2.90;0.50;;;37.20;1.00;;;;;;4983777;28;20481;-70
2023/08/03 10:14:09;;;;;;;3.93;0.77;;;35.30;1.00;;;;;;4980260;28;20576;-68
2023/08/03 10:16:37;;;;;;;6.60;0.93;;;33.90;1.00;;;;;;4986305;28;20479;-68
2023/08/03 10:19:05;;;;;;;6.40;0.90;;;33.00;1.00;;;;;;4983695;28;20464;-68
2023/08/03 10:21:32;;;;;;;5.33;0.87;;;32.10;1.00;;;;;;4894515;28;2642185;-69
2023/08/03 10:24:09;;;;;;;4.40;0.70;;;31.30;1.00;;;;;;4983150;28;20683;-69
2023/08/03 10:26:38;;;;;;;2.97;0.70;;;30.50;1.00;;;;;;4982497;28;20460;-69
2023/08/03 10:29:04;;;;;;;4.00;0.60;;;29.80;1.00;;;;;;4982775;28;20464;-69
2023/08/03 10:31:30;;;;;;;3.60;0.87;;;29.40;1.00;;;;;;4979446;28;20520;-69
2023/08/03 10:34:24;;;;;;;3.30;0.60;;;28.90;1.00;;;;;;4987448;28;20859;-69
2023/08/03 10:36:53;;;;;;;4.17;0.53;;;28.40;1.00;;;;;;4986602;28;20237;-69
2023/08/03 10:39:48;;;;;;;4.10;0.67;;;27.90;1.00;;;;;;4980662;28;20468;-69
2023/08/03 10:42:34;;;;;;;4.83;0.60;;;27.30;1.00;;;;;;4987729;28;20945;-70
2023/08/03 10:45:30;;;;;;;2.90;0.40;;;26.80;1.00;;;;;;4980352;28;20840;-69
2023/08/03 10:48:17;;;;;;;4.03;0.57;;;26.40;1.00;;;;;;4983932;28;20905;-69
2023/08/03 10:51:01;;;;;;;2.90;0.57;;;26.00;1.00;;;;;;4982503;28;20477;-70
2023/08/03 10:53:28;;;;;;;4.13;0.83;;;25.80;1.00;;;;;;4983077;28;20457;-69
2023/08/03 10:56:05;;;;;;;3.83;0.73;;;25.60;1.00;;;;;;4977158;28;20601;-69
2023/08/03 10:58:43;;;;;;;4.90;1.00;;;25.50;1.00;;;;;;4984539;28;20551;-68
2023/08/03 11:01:09;;;;;;;4.10;0.60;;;25.40;1.00;;;;;;4984202;28;20993;-69
2023/08/03 11:03:37;;;;;;;3.57;0.70;;;25.30;1.00;;;;;;4982840;28;20498;-64
2023/08/03 11:06:04;;;;;;;4.00;0.60;;;25.20;1.00;;;;;;4984437;28;21131;-65
2023/08/03 11:08:31;;;;;;;3.47;0.50;;;25.10;1.00;;;;;;4983664;28;20470;-65
2023/08/03 11:10:58;;;;;;;4.53;0.77;;;25.10;1.00;;;;;;4979012;28;20885;-64
2023/08/03 11:13:25;;;;;;;5.57;0.70;;;25.10;1.00;;;;;;4982177;28;20504;-68
2023/08/03 11:15:54;;;;;;;3.20;0.53;;;25.00;1.00;;;;;;4984543;28;20945;-68
2023/08/03 11:18:20;;;;;;;4.43;0.73;;;24.90;1.00;;;;;;4984476;28;20475;-68
2023/08/03 11:20:47;;;;;;;4.60;0.70;;;24.90;1.00;;;;;;4980579;28;20879;-68
2023/08/03 11:23:14;;;;;;;3.83;0.47;;;24.90;1.00;;;;;;4984241;28;20468;-68
2023/08/03 11:25:41;;;;;;;3.90;0.50;;;24.90;1.00;;;;;;4974891;28;20469;-68
2023/08/03 11:28:08;;;;;;;3.50;0.80;;;24.90;1.00;;;;;;4986656;28;20539;-68
2023/08/03 11:30:44;;;;;;;3.47;0.63;;;24.80;1.00;;;;;;4979396;28;20486;-68
2023/08/03 11:33:15;;;;;;;3.73;1.13;;;24.80;1.00;;;;;;4976103;28;20757;-67
2023/08/03 11:35:43;;;;;;;4.40;0.60;;;24.70;1.00;;;;;;4986053;28;20937;-67
2023/08/03 11:38:10;;;;;;;5.50;0.70;;;24.70;1.00;;;;;;4983966;28;20468;-67
2023/08/03 11:40:38;;;;;;;5.37;0.80;;;24.60;1.00;;;;;;4978517;28;20543;-67
2023/08/03 11:43:05;;;;;;;3.80;0.60;;;24.60;1.00;;;;;;4985240;28;20461;-64
2023/08/03 11:45:35;;;;;;;2.90;0.53;;;24.50;1.00;;;;;;4973303;28;20506;-66
2023/08/03 11:48:02;;;;;;;5.20;0.50;;;24.40;1.00;;;;;;4978329;28;20469;-64
2023/08/03 11:50:30;;;;;;;3.70;0.53;;;24.40;1.00;;;;;;4978791;28;20468;-65
2023/08/03 11:53:01;;;;;;;3.60;0.60;;;24.40;1.00;;;;;;4983297;28;20507;-63
2023/08/03 11:55:30;;;;;;;4.40;0.87;;;24.40;1.00;;;;;;4981248;28;20480;-63
2023/08/03 11:58:08;;;;;;;4.00;0.60;;;24.30;1.00;;;;;;4984201;28;20475;-63
2023/08/03 12:00:35;;;;;;;3.10;0.53;;;24.30;1.00;;;;;;4982342;28;20491;-64
2023/08/03 12:03:02;;;;;;;4.20;1.00;;;24.30;1.00;;;;;;4985217;28;20471;-63
2023/08/03 12:05:43;;;;;;;5.23;0.60;;;24.30;1.00;;;;;;4977997;28;20542;-63
2023/08/03 12:08:10;;;;;;;3.90;0.70;;;24.30;1.00;;;;;;4980532;28;20817;-63
2023/08/03 12:10:36;;;;;;;7.70;1.33;;;24.40;1.00;;;;;;4982609;28;20456;-63
2023/08/03 12:13:04;;;;;;;3.30;0.60;;;24.40;1.00;;;;;;4982249;28;20491;-63
2023/08/03 12:15:31;;;;;;;3.23;0.97;;;24.40;1.00;;;;;;4977557;28;20489;-66
2023/08/03 12:17:58;;;;;;;3.53;0.63;;;24.40;1.00;;;;;;4984127;28;20973;-64
2023/08/03 12:20:24;;;;;;;3.70;0.77;;;24.50;1.00;;;;;;4979359;28;20465;-67
2023/08/03 12:22:52;;;;;;;5.70;0.70;;;24.60;1.00;;;;;;4983261;28;20480;-66
2023/08/03 12:25:19;;;;;;;4.20;1.10;;;24.70;1.00;;;;;;4976498;28;20489;-66
2023/08/03 12:27:46;;;;;;;4.47;0.80;;;24.70;1.30;;;;;;4975653;28;20464;-67
2023/08/03 12:30:12;;;;;;;8.20;0.60;;;24.80;1.00;;;;;;4981093;28;20794;-67
2023/08/03 12:32:39;;;;;;;4.83;0.57;;;24.90;1.20;;;;;;4972290;28;20488;-68
2023/08/03 12:35:08;;;;;;;3.40;0.60;;;25.00;1.00;;;;;;4974870;28;20488;-68
2023/08/03 12:37:35;;;;;;;4.93;0.90;;;25.00;1.00;;;;;;4981072;28;20461;-68
2023/08/03 12:40:03;;;;;;;3.50;0.60;;;25.10;1.00;;;;;;4983615;28;20859;-67
2023/08/03 12:42:30;;;;;;;4.20;0.60;;;25.10;1.00;;;;;;4976459;28;20749;-68
2023/08/03 12:44:56;;;;;;;3.10;0.67;;;25.10;1.00;;;;;;4977000;28;21216;-67
2023/08/03 12:47:23;;;;;;;4.30;0.60;;;25.10;1.00;;;;;;4983474;28;20464;-67
2023/08/03 12:49:52;;;;;;;3.50;0.60;;;25.10;1.00;;;;;;4983201;28;20464;-68
2023/08/03 12:52:19;;;;;;;3.37;0.60;;;25.10;1.00;;;;;;4980676;28;20484;-67
2023/08/03 12:54:46;;;;;;;3.00;0.40;;;24.90;1.00;;;;;;4984039;28;20496;-68